This is the latest recevied weather packets stored in our database for station/object K3PPP. If no packets are shown the sender has not sent any weather packets the latest 10 day(s).
| Time | Temp. | Humidity | Pressure | Rain* | Wind** | Luminosity | Snow |
|---|---|---|---|---|---|---|---|
| 1778166784 | 11.11° C | 53% | 1012.2 hPa | 0 mm | - | 682 W/m² | - |
| 1778166481 | 10.56° C | 50% | 1011.9 hPa | 0 mm | - | 656 W/m² | - |
| 1778166178 | 11.11° C | 49% | 1012.4 hPa | 0 mm | - | 676 W/m² | - |
| 1778165874 | 11.11° C | 48% | 1012.3 hPa | 0 mm | - | 651 W/m² | - |
| 1778165570 | 10.56° C | 49% | 1012.6 hPa | 0 mm | - | 645 W/m² | - |
| 1778165267 | 10° C | 48% | 1012.5 hPa | 0 mm | - | 633 W/m² | - |
| 1778164965 | 9.44° C | 59% | 1012.5 hPa | 0 mm | - | 598 W/m² | - |
| 1778164661 | 9.44° C | 58% | 1012.8 hPa | 0 mm | - | 615 W/m² | - |
| 1778164359 | 9.44° C | 59% | 1012.8 hPa | 0 mm | - | 601 W/m² | - |
| 1778164054 | 10° C | 59% | 1012.8 hPa | 0 mm | - | 601 W/m² | - |
| 1778163751 | 9.44° C | 58% | 1012.8 hPa | 0 mm | - | 588 W/m² | - |
| 1778163447 | 9.44° C | 56% | 1012.8 hPa | 0 mm | - | 566 W/m² | - |
| 1778163145 | 10° C | 57% | 1012.8 hPa | 0 mm | - | 549 W/m² | - |
| 1778162840 | 9.44° C | 60% | 1013.2 hPa | 0 mm | - | 530 W/m² | - |
| 1778162539 | 10° C | 59% | 1013.2 hPa | 0 mm | - | 520 W/m² | - |
| 1778162235 | 10° C | 59% | 1013.2 hPa | 0 mm | - | 509 W/m² | - |
| 1778161933 | 10° C | 54% | 1013.2 hPa | 0 mm | - | 496 W/m² | - |
| 1778161629 | 8.89° C | 57% | 1013.2 hPa | 0 mm | - | 479 W/m² | - |
| 1778161325 | 9.44° C | 61% | 1013.2 hPa | 0 mm | - | 463 W/m² | - |
| 1778161021 | 9.44° C | 58% | 1013.2 hPa | 0 mm | - | 452 W/m² | - |
| 1778160718 | 8.89° C | 59% | 1013.6 hPa | 0 mm | - | 438 W/m² | - |
| 1778160415 | 8.89° C | 57% | 1013.5 hPa | 0 mm | - | 424 W/m² | - |
| 1778160111 | 8.33° C | 60% | 1013.5 hPa | 0 mm | - | 406 W/m² | - |
| 1778159809 | 8.33° C | 59% | 1013.5 hPa | 0 mm | - | 391 W/m² | - |
| 1778159506 | 9.44° C | 58% | 1013.3 hPa | 0 mm | - | 375 W/m² | - |
* Rain latest hour (hover to see other rain measurements)
** Current wind speed in m/s (hover to see current wind gust speed)